Time;durP1;ratioP1;P1;durP2;ratioP2;P2;SDS_P1;SDS_P2;PMS_P1;PMS_P2;Temp;Humidity;BMP_temperature;BMP_pressure;BME280_temperature;BME280_humidity;BME280_pressure;Samples;Min_cycle;Max_cycle;Signal;HPM_P1;HPM_P2
2021/05/17 00:01:04;;;;;;;3.50;1.60;;;;;;;8.98;95.92;95863.53;4979989;28;20514;-62
2021/05/17 00:03:31;;;;;;;3.75;0.93;;;;;;;8.98;96.03;95862.72;4972383;28;20046;-62
2021/05/17 00:05:57;;;;;;;1.10;0.85;;;;;;;8.98;96.51;95862.72;4961498;28;20054;-60
2021/05/17 00:08:23;;;;;;;1.25;0.70;;;;;;;8.87;95.51;95870.81;4958630;28;20923;-60
2021/05/17 00:10:48;;;;;;;4.35;0.98;;;;;;;8.89;95.82;95859.50;4972095;28;20057;-60
2021/05/17 00:13:14;;;;;;;2.88;1.05;;;;;;;8.80;96.31;95868.81;4978168;28;20046;-62
2021/05/17 00:15:40;;;;;;;1.25;0.85;;;;;;;8.75;96.30;95871.06;4984505;28;20042;-60
2021/05/17 00:18:06;;;;;;;1.27;0.80;;;;;;;8.77;96.66;95868.78;4979385;28;20100;-63
2021/05/17 00:20:32;;;;;;;1.42;0.70;;;;;;;8.72;96.85;95877.31;4984160;28;20034;-60
2021/05/17 00:22:59;;;;;;;3.33;1.00;;;;;;;8.77;97.41;95874.25;4983816;28;20391;-60
2021/05/17 00:25:26;;;;;;;3.40;2.17;;;;;;;8.84;96.06;95881.69;4978785;28;20265;-60
2021/05/17 00:27:54;;;;;;;0.98;0.77;;;;;;;8.76;94.96;95875.38;4984221;28;20087;-61
2021/05/17 00:30:22;;;;;;;1.13;0.80;;;;;;;8.61;95.03;95885.38;4980180;28;20054;-61
2021/05/17 00:32:47;;;;;;;1.17;0.65;;;;;;;8.85;93.31;95877.81;4983873;28;20053;-59
2021/05/17 00:35:14;;;;;;;3.33;0.57;;;;;;;8.86;93.15;95874.72;4978557;28;20046;-59
2021/05/17 00:37:41;;;;;;;1.42;0.70;;;;;;;8.85;91.33;95875.09;4996927;28;20057;-62
2021/05/17 00:40:07;;;;;;;2.38;0.70;;;;;;;8.75;92.82;95887.44;4981760;28;20070;-62
2021/05/17 00:42:34;;;;;;;1.05;0.55;;;;;;;8.75;91.31;95882.78;4982416;28;20050;-58
2021/05/17 00:45:00;;;;;;;2.70;0.60;;;;;;;8.80;90.29;95889.84;4982406;28;20042;-60
2021/05/17 00:47:27;;;;;;;1.55;0.70;;;;;;;8.66;91.98;95893.22;4978164;28;20491;-60
2021/05/17 00:49:53;;;;;;;2.55;0.57;;;;;;;8.63;91.74;95896.69;4978122;28;20466;-60
2021/05/17 00:52:19;;;;;;;0.57;0.47;;;;;;;8.67;90.85;95897.53;4973152;28;20645;-63
2021/05/17 00:54:45;;;;;;;1.20;0.60;;;;;;;8.63;90.10;95891.25;4983333;28;20056;-60
2021/05/17 00:57:11;;;;;;;1.80;0.90;;;;;;;8.54;89.34;95883.34;4977569;28;20132;-58
2021/05/17 00:59:37;;;;;;;3.78;1.55;;;;;;;8.56;89.12;95891.16;4983830;28;20476;-60
2021/05/17 01:02:03;;;;;;;5.15;0.60;;;;;;;8.59;88.85;95893.16;4981478;28;20046;-64
2021/05/17 01:04:29;;;;;;;1.48;0.52;;;;;;;8.50;89.42;95896.19;4980695;28;20049;-60
2021/05/17 01:06:56;;;;;;;0.82;0.60;;;;;;;8.38;89.92;95897.16;4983077;28;20038;-60
2021/05/17 01:09:27;;;;;;;1.58;0.57;;;;;;;8.38;90.61;95905.34;4975588;28;20051;-60
2021/05/17 01:11:59;;;;;;;0.75;0.45;;;;;;;8.35;90.62;95895.16;4982908;28;20137;-59
2021/05/17 01:14:25;;;;;;;2.03;0.52;;;;;;;8.52;88.14;95902.03;4976583;28;20121;-56
2021/05/17 01:16:54;;;;;;;5.20;0.60;;;;;;;8.44;87.17;95885.94;4990489;28;20043;-63
2021/05/17 01:19:42;;;;;;;2.05;0.80;;;;;;;8.34;89.72;95895.56;4989216;28;20077;-60
2021/05/17 01:22:11;;;;;;;0.77;0.47;;;;;;;8.21;90.11;95890.34;4984457;28;20065;-61
2021/05/17 01:24:38;;;;;;;1.52;0.40;;;;;;;8.21;89.42;95895.81;4983741;28;20097;-62
2021/05/17 01:27:04;;;;;;;4.95;0.75;;;;;;;8.07;90.64;95897.53;4982986;28;20042;-63
2021/05/17 01:29:29;;;;;;;2.40;0.70;;;;;;;8.04;91.48;95893.63;4978845;28;20385;-62
2021/05/17 01:31:55;;;;;;;2.08;0.60;;;;;;;8.06;90.93;95896.75;4985728;28;20046;-59
2021/05/17 01:34:22;;;;;;;1.30;0.50;;;;;;;8.07;91.36;95892.91;4977031;28;20050;-59
2021/05/17 01:36:50;;;;;;;1.63;0.50;;;;;;;8.03;91.09;95889.31;4984511;28;20034;-61
2021/05/17 01:39:17;;;;;;;2.42;0.70;;;;;;;8.10;91.40;95883.94;4978012;28;20073;-61
2021/05/17 01:41:42;;;;;;;3.67;0.82;;;;;;;8.06;90.59;95887.81;4982056;28;20395;-60
2021/05/17 01:44:12;;;;;;;5.07;0.70;;;;;;;8.02;90.68;95882.31;4972098;28;20050;-62
2021/05/17 01:46:40;;;;;;;1.50;0.60;;;;;;;8.03;91.51;95868.31;4979675;28;20038;-60
2021/05/17 01:49:05;;;;;;;3.88;0.95;;;;;;;7.92;91.73;95867.34;4956598;28;20113;-60
2021/05/17 01:51:31;;;;;;;2.70;0.80;;;;;;;7.83;91.55;95862.19;4977472;28;20050;-61
2021/05/17 01:53:58;;;;;;;3.55;0.98;;;;;;;7.83;92.00;95862.19;4980439;28;20042;-60
2021/05/17 01:56:24;;;;;;;3.25;0.70;;;;;;;7.86;92.27;95852.50;4975672;28;20770;-61
2021/05/17 01:58:49;;;;;;;2.55;0.63;;;;;;;7.76;91.31;95864.84;4982372;28;20093;-59
2021/05/17 02:01:17;;;;;;;2.05;0.63;;;;;;;7.63;92.62;95861.53;4974743;28;20122;-61
2021/05/17 02:03:45;;;;;;;2.88;0.60;;;;;;;7.57;92.86;95865.72;4981629;28;20070;-61
2021/05/17 02:06:13;;;;;;;2.05;0.80;;;;;;;7.64;94.02;95870.50;4976561;28;20149;-63
2021/05/17 02:08:42;;;;;;;1.23;0.70;;;;;;;7.67;92.85;95864.31;4978911;28;20047;-61
2021/05/17 02:11:13;;;;;;;1.58;0.80;;;;;;;7.76;90.57;95861.28;4976701;28;20396;-61
2021/05/17 02:13:39;;;;;;;2.13;0.70;;;;;;;7.82;91.02;95863.34;4982031;28;20038;-61
2021/05/17 02:16:05;;;;;;;2.70;0.88;;;;;;;7.74;90.69;95867.13;4959550;28;20137;-59
2021/05/17 02:18:30;;;;;;;1.88;0.52;;;;;;;7.72;91.14;95866.69;4960006;28;20186;-62
2021/05/17 02:20:56;;;;;;;1.55;0.82;;;;;;;7.76;90.94;95867.56;4964463;28;20432;-59
2021/05/17 02:23:22;;;;;;;1.70;0.90;;;;;;;7.74;91.00;95875.31;4967289;28;20572;-62
2021/05/17 02:25:50;;;;;;;4.43;0.65;;;;;;;7.66;91.61;95877.13;4971460;28;20034;-60
2021/05/17 02:28:17;;;;;;;5.45;0.70;;;;;;;7.64;91.58;95871.28;4976806;28;20097;-60
2021/05/17 02:30:44;;;;;;;1.92;0.75;;;;;;;7.78;91.60;95865.25;4981398;28;20047;-61
2021/05/17 02:33:10;;;;;;;4.55;0.80;;;;;;;7.82;90.46;95857.88;4975656;28;20492;-60
2021/05/17 02:35:36;;;;;;;3.17;0.68;;;;;;;7.95;90.25;95858.44;4980506;28;20463;-60
2021/05/17 02:38:03;;;;;;;3.22;0.90;;;;;;;7.97;89.80;95867.03;4979557;28;20042;-62
2021/05/17 02:40:29;;;;;;;5.97;1.20;;;;;;;7.89;88.87;95857.22;4980860;28;20584;-60
2021/05/17 02:43:08;;;;;;;1.50;0.75;;;;;;;7.87;89.59;95869.63;4980257;28;20665;-59
2021/05/17 02:45:34;;;;;;;3.20;0.70;;;;;;;7.85;90.72;95872.75;4979600;28;20046;-61
2021/05/17 02:48:02;;;;;;;2.60;1.10;;;;;;;7.86;91.17;95863.41;4980156;28;20096;-61
2021/05/17 02:50:43;;;;;;;8.48;0.70;;;;;;;7.85;91.00;95864.56;4977702;28;20046;-60
2021/05/17 02:53:25;;;;;;;1.48;0.73;;;;;;;8.00;90.14;95869.03;4974258;28;20057;-61
2021/05/17 02:55:53;;;;;;;3.58;0.65;;;;;;;7.99;89.44;95875.63;4982317;28;20035;-61
2021/05/17 02:58:21;;;;;;;2.38;0.85;;;;;;;8.08;88.94;95875.34;4976799;28;20046;-58
2021/05/17 03:00:53;;;;;;;5.05;0.90;;;;;;;8.11;88.34;95868.38;4979433;28;20480;-58
2021/05/17 03:03:24;;;;;;;2.58;1.23;;;;;;;8.20;89.22;95866.16;4972422;28;20081;-61
2021/05/17 03:06:02;;;;;;;2.53;0.82;;;;;;;8.12;88.57;95868.03;4980160;28;20450;-62
2021/05/17 03:08:32;;;;;;;3.92;1.58;;;;;;;8.22;87.04;95872.03;4991044;28;20186;-62
2021/05/17 03:10:59;;;;;;;5.70;1.00;;;;;;;7.95;87.84;95871.31;4975767;28;20058;-62
2021/05/17 03:13:26;;;;;;;3.45;1.40;;;;;;;7.77;89.88;95873.78;4972781;28;20392;-60
2021/05/17 03:15:52;;;;;;;2.50;1.30;;;;;;;7.66;90.60;95874.41;4980522;28;20046;-62
2021/05/17 03:18:17;;;;;;;5.55;0.70;;;;;;;7.69;91.69;95872.91;4975347;28;20438;-61
2021/05/17 03:20:43;;;;;;;2.83;0.70;;;;;;;7.76;91.16;95867.56;4979458;28;20045;-59
2021/05/17 03:23:11;;;;;;;5.57;0.90;;;;;;;7.75;90.69;95867.91;4973205;28;20057;-60
2021/05/17 03:25:41;;;;;;;1.65;0.75;;;;;;;7.77;90.09;95871.06;4984000;28;20042;-59
2021/05/17 03:28:06;;;;;;;5.85;0.90;;;;;;;7.75;89.53;95863.25;4974589;28;20057;-59
2021/05/17 03:30:32;;;;;;;9.80;5.10;;;;;;;7.50;90.77;95862.88;4978679;28;20499;-60
2021/05/17 03:32:57;;;;;;;4.05;1.40;;;;;;;7.44;91.83;95856.97;4977961;28;20762;-59
2021/05/17 03:35:23;;;;;;;1.17;0.82;;;;;;;7.45;91.55;95866.72;4975603;28;20124;-59
2021/05/17 03:37:49;;;;;;;6.80;1.08;;;;;;;7.51;90.87;95867.19;4978596;28;20043;-58
2021/05/17 03:40:16;;;;;;;1.70;0.77;;;;;;;7.57;90.85;95868.44;4974236;28;20046;-58
2021/05/17 03:42:42;;;;;;;6.93;1.20;;;;;;;7.58;90.88;95875.47;4979731;28;20145;-62
2021/05/17 03:45:10;;;;;;;3.13;0.90;;;;;;;7.59;90.22;95887.16;4976643;28;20133;-62
2021/05/17 03:47:36;;;;;;;3.53;0.80;;;;;;;7.64;90.91;95873.22;4984473;28;20047;-59
2021/05/17 03:50:04;;;;;;;7.63;1.77;;;;;;;7.68;89.54;95882.22;4984098;28;20399;-62
2021/05/17 03:52:30;;;;;;;7.03;1.08;;;;;;;7.55;89.15;95886.31;4982179;28;20046;-61
2021/05/17 03:54:55;;;;;;;4.00;0.95;;;;;;;7.65;89.65;95891.94;4983841;28;20046;-61
2021/05/17 03:57:21;;;;;;;2.83;0.70;;;;;;;7.76;89.51;95889.38;4979820;28;20049;-61
2021/05/17 03:59:46;;;;;;;3.08;1.00;;;;;;;7.78;88.70;95889.78;4982322;28;20058;-60
2021/05/17 04:02:15;;;;;;;3.20;0.95;;;;;;;7.71;87.88;95886.94;4977138;28;20050;-61
2021/05/17 04:04:49;;;;;;;2.20;0.70;;;;;;;7.89;87.39;95883.69;4982682;28;20050;-61
2021/05/17 04:15:14;;;;;;;3.72;1.00;;;;;;;7.97;85.55;95891.56;4992048;28;20050;-61
2021/05/17 04:17:39;;;;;;;5.15;1.10;;;;;;;8.02;86.65;95894.00;4984650;28;20133;-61
2021/05/17 04:20:06;;;;;;;4.05;1.23;;;;;;;8.00;86.46;95896.31;4980560;28;20129;-62
2021/05/17 04:22:31;;;;;;;1.23;0.82;;;;;;;7.95;86.50;95902.06;4982318;28;20153;-61
2021/05/17 04:24:56;;;;;;;1.52;0.90;;;;;;;8.07;85.37;95903.81;4982500;28;20499;-61
2021/05/17 04:27:22;;;;;;;3.42;0.98;;;;;;;8.26;85.83;95910.25;4977079;28;20814;-61
2021/05/17 04:29:47;;;;;;;6.18;1.23;;;;;;;8.33;84.08;95907.63;4974637;28;20109;-60
2021/05/17 04:32:13;;;;;;;4.82;1.58;;;;;;;8.27;84.93;95911.84;4962630;28;20117;-63
2021/05/17 04:34:38;;;;;;;3.20;0.80;;;;;;;8.41;84.93;95912.03;4985580;28;20042;-62
2021/05/17 04:37:03;;;;;;;2.33;0.88;;;;;;;8.38;84.78;95912.75;4981599;28;20380;-63
2021/05/17 04:39:29;;;;;;;3.72;0.95;;;;;;;8.42;84.50;95919.84;4981247;28;20098;-62
2021/05/17 04:41:54;;;;;;;2.50;0.80;;;;;;;8.49;83.59;95921.88;4983956;28;20563;-62
2021/05/17 04:44:20;;;;;;;3.50;1.10;;;;;;;8.50;83.92;95918.00;4977873;28;20077;-61
2021/05/17 04:46:45;;;;;;;3.10;1.00;;;;;;;8.59;82.80;95928.63;4983076;28;20043;-62
2021/05/17 04:49:10;;;;;;;4.18;0.80;;;;;;;8.76;82.71;95932.72;4977367;28;20054;-60
2021/05/17 04:51:36;;;;;;;3.28;0.90;;;;;;;8.74;83.16;95935.03;4983129;28;20740;-60
2021/05/17 04:54:02;;;;;;;3.78;0.80;;;;;;;9.06;82.41;95946.31;4979867;28;20046;-63
2021/05/17 04:56:27;;;;;;;6.60;0.93;;;;;;;9.12;82.44;95939.31;4980802;28;20228;-61
2021/05/17 04:58:53;;;;;;;5.65;1.20;;;;;;;9.91;80.59;95942.72;4982545;28;20043;-62
2021/05/17 05:01:18;;;;;;;5.10;0.70;;;;;;;10.98;74.10;95940.88;4974287;28;20527;-59
2021/05/17 05:03:44;;;;;;;2.53;0.70;;;;;;;11.87;69.07;95945.66;4983481;28;20039;-62
2021/05/17 05:06:09;;;;;;;1.80;0.80;;;;;;;10.46;72.57;95933.69;4976778;28;20065;-62
2021/05/17 05:08:35;;;;;;;1.55;0.60;;;;;;;9.55;77.58;95949.88;4984580;28;20141;-61
2021/05/17 05:11:00;;;;;;;3.05;0.80;;;;;;;9.15;79.02;95956.94;4984042;28;20051;-60
2021/05/17 05:13:25;;;;;;;4.07;1.13;;;;;;;8.93;80.15;95958.63;4979774;28;20053;-62
2021/05/17 05:15:52;;;;;;;7.15;0.98;;;;;;;8.81;81.80;95965.16;4987997;28;20052;-60
2021/05/17 05:18:19;;;;;;;2.90;0.98;;;;;;;8.91;79.26;95953.56;4979463;28;20046;-58
2021/05/17 05:20:44;;;;;;;5.85;0.75;;;;;;;8.94;81.73;95957.50;4980220;28;20064;-61
2021/05/17 05:23:18;;;;;;;1.60;0.77;;;;;;;9.22;80.08;95964.41;4975474;28;20496;-62
2021/05/17 05:28:20;;;;;;;7.38;1.00;;;;;;;9.25;77.96;95971.84;4976763;28;20151;-60
2021/05/17 05:33:17;;;;;;;6.18;0.70;;;;;;;8.90;78.72;95967.59;4976708;28;20500;-59
2021/05/17 05:35:45;;;;;;;2.63;0.85;;;;;;;8.82;80.53;95974.91;4982972;28;20049;-59
2021/05/17 05:38:11;;;;;;;3.10;1.08;;;;;;;8.55;81.26;95963.28;4975420;28;20057;-59
2021/05/17 05:40:36;;;;;;;4.93;0.93;;;;;;;8.42;81.01;95971.69;4983278;28;20137;-60
2021/05/17 05:43:02;;;;;;;2.67;0.80;;;;;;;8.32;80.89;95958.69;4979669;28;20050;-63
2021/05/17 05:45:28;;;;;;;2.50;0.90;;;;;;;8.43;80.82;95972.50;4977920;28;20668;-60
2021/05/17 05:47:54;;;;;;;2.22;0.73;;;;;;;8.49;79.67;95981.16;4981315;28;20046;-62
2021/05/17 05:50:19;;;;;;;3.38;0.90;;;;;;;8.60;80.91;95979.31;4977520;28;20085;-59
2021/05/17 05:52:45;;;;;;;6.35;1.10;;;;;;;8.64;80.12;95993.03;4993174;28;20049;-62
2021/05/17 05:55:12;;;;;;;5.10;1.88;;;;;;;8.71;80.68;95985.69;4984460;28;20046;-63
2021/05/17 05:57:42;;;;;;;1.23;0.60;;;;;;;8.68;79.94;96004.75;4991903;28;20125;-58
2021/05/17 06:00:10;;;;;;;2.63;0.70;;;;;;;9.01;80.43;95995.03;4974506;28;20047;-59
2021/05/17 06:02:37;;;;;;;2.65;0.70;;;;;;;8.85;79.63;96000.69;4981604;28;20043;-60
2021/05/17 06:05:03;;;;;;;1.80;0.50;;;;;;;8.52;81.34;95988.59;4980151;28;20570;-63
2021/05/17 06:07:28;;;;;;;1.58;0.80;;;;;;;8.48;83.87;95999.47;4980690;28;20057;-61
2021/05/17 06:09:54;;;;;;;3.53;0.80;;;;;;;8.62;83.81;96004.31;4984156;28;20046;-60
2021/05/17 06:12:21;;;;;;;2.83;0.90;;;;;;;8.48;84.68;95995.94;4975255;28;20458;-62
2021/05/17 06:14:49;;;;;;;1.60;0.60;;;;;;;8.30;83.39;96006.56;4979340;28;20038;-61
2021/05/17 06:17:15;;;;;;;1.27;0.75;;;;;;;8.49;84.15;96014.69;4971506;28;20054;-61
2021/05/17 06:19:40;;;;;;;2.95;0.82;;;;;;;8.49;84.56;96002.97;4979848;28;20502;-59
2021/05/17 06:22:07;;;;;;;3.80;0.90;;;;;;;8.49;84.79;96016.63;4975188;28;20546;-60
2021/05/17 06:24:32;;;;;;;3.08;1.00;;;;;;;8.62;83.87;96020.69;5000377;23;20550;-63
2021/05/17 06:26:58;;;;;;;4.82;2.03;;;;;;;8.65;83.50;96014.50;4997183;28;20049;-64
2021/05/17 06:29:23;;;;;;;4.10;0.80;;;;;;;8.77;83.16;96018.94;4978716;28;20936;-63
2021/05/17 06:31:51;;;;;;;3.35;0.80;;;;;;;8.89;83.59;96018.69;5014294;28;20048;-63
2021/05/17 06:34:17;;;;;;;5.63;1.05;;;;;;;8.83;82.88;96027.59;4986886;28;20511;-63
2021/05/17 06:36:42;;;;;;;7.50;1.00;;;;;;;8.88;82.59;96019.84;4971277;28;20053;-63
2021/05/17 06:39:09;;;;;;;5.07;0.80;;;;;;;8.99;80.67;96028.94;4974936;28;20061;-62
2021/05/17 06:41:36;;;;;;;7.22;1.00;;;;;;;9.26;81.36;96025.34;4980553;28;20042;-62
2021/05/17 06:44:02;;;;;;;3.40;0.70;;;;;;;9.42;79.80;96031.38;4980072;28;20193;-64
2021/05/17 06:46:27;;;;;;;5.00;1.02;;;;;;;9.55;80.05;96029.16;4977060;28;20787;-64
2021/05/17 06:48:53;;;;;;;4.20;0.80;;;;;;;9.71;77.48;96032.41;4983498;28;20666;-63
2021/05/17 06:51:19;;;;;;;5.05;1.52;;;;;;;9.51;79.26;96031.84;4976734;28;20107;-63
2021/05/17 06:53:46;;;;;;;3.08;1.20;;;;;;;9.42;79.09;96017.72;4984733;28;20050;-63
2021/05/17 06:56:23;;;;;;;3.60;1.05;;;;;;;9.36;79.09;96022.72;4981149;28;20045;-64
2021/05/17 07:01:22;;;;;;;4.13;1.40;;;;;;;9.24;79.42;96028.44;4979085;28;20127;-63
2021/05/17 07:03:48;;;;;;;9.68;1.50;;;;;;;9.43;78.55;96034.88;4978914;28;20038;-63
2021/05/17 07:06:18;;;;;;;3.10;1.05;;;;;;;9.68;77.75;96037.84;4961054;28;20176;-64
2021/05/17 07:11:37;;;;;;;8.32;1.10;;;;;;;9.62;78.49;96036.63;4967830;28;20057;-64
2021/05/17 07:14:03;;;;;;;5.00;0.80;;;;;;;9.91;78.30;96040.41;4976394;28;20043;-63
2021/05/17 07:16:32;;;;;;;4.97;0.80;;;;;;;9.98;77.22;96034.22;4976201;28;20042;-62
2021/05/17 07:18:57;;;;;;;4.15;1.02;;;;;;;9.95;76.69;96031.03;4970537;28;20097;-60
2021/05/17 07:23:49;;;;;;;6.38;1.65;;;;;;;10.41;73.88;96037.28;4979401;28;20048;-64
2021/05/17 07:26:16;;;;;;;6.53;1.52;;;;;;;10.87;73.40;96039.47;4976048;28;20414;-63
2021/05/17 07:28:44;;;;;;;2.45;0.60;;;;;;;11.01;71.00;96038.75;4971262;28;20046;-63
2021/05/17 07:31:10;;;;;;;4.40;0.73;;;;;;;10.61;71.73;96035.84;4973491;28;20042;-64
2021/05/17 07:33:38;;;;;;;4.90;0.77;;;;;;;10.35;73.09;96045.03;4973667;28;20043;-63
2021/05/17 07:36:04;;;;;;;10.75;3.05;;;;;;;10.28;73.40;96050.44;4978369;28;20172;-61
2021/05/17 07:38:31;;;;;;;4.50;1.10;;;;;;;10.17;74.60;96063.28;4982306;28;20054;-62
2021/05/17 07:40:58;;;;;;;4.93;0.90;;;;;;;10.20;73.99;96052.34;4981557;28;20050;-63
2021/05/17 07:43:24;;;;;;;3.92;1.13;;;;;;;10.10;73.16;96048.38;4971223;28;20501;-62
2021/05/17 07:45:50;;;;;;;4.43;1.20;;;;;;;9.90;74.36;96049.75;4977998;28;20046;-64
2021/05/17 07:48:16;;;;;;;2.25;0.73;;;;;;;10.06;74.01;96054.97;4973956;28;20406;-63
2021/05/17 07:50:41;;;;;;;3.55;0.73;;;;;;;10.05;74.72;96061.63;4974553;28;20092;-64
2021/05/17 07:53:07;;;;;;;7.28;0.98;;;;;;;10.03;74.18;96058.47;4969791;28;20410;-63
2021/05/17 07:55:32;;;;;;;3.20;0.60;;;;;;;10.04;74.20;96066.28;4986179;28;20042;-63
2021/05/17 07:57:58;;;;;;;6.65;1.52;;;;;;;10.14;74.00;96062.88;4972558;28;20053;-62
2021/05/17 08:00:24;;;;;;;6.28;0.95;;;;;;;10.22;73.89;96062.91;4973187;28;20961;-63
2021/05/17 08:02:50;;;;;;;2.00;0.70;;;;;;;10.24;73.98;96066.06;4979419;28;20104;-63
2021/05/17 08:05:16;;;;;;;2.15;0.98;;;;;;;10.23;72.97;96061.78;4980269;28;20038;-63
2021/05/17 08:07:42;;;;;;;3.28;1.00;;;;;;;10.31;72.86;96068.88;5002673;28;20081;-62
2021/05/17 08:10:10;;;;;;;1.45;0.70;;;;;;;10.34;72.61;96076.34;4980382;28;20522;-64
2021/05/17 08:12:36;;;;;;;2.95;0.80;;;;;;;10.29;74.14;96066.50;4980662;28;20142;-64
2021/05/17 08:15:02;;;;;;;3.80;0.90;;;;;;;10.28;76.14;96075.88;4981481;28;20129;-64
2021/05/17 08:17:27;;;;;;;3.17;1.52;;;;;;;10.49;74.90;96079.94;4973912;28;20461;-63
2021/05/17 08:19:52;;;;;;;2.85;0.95;;;;;;;10.28;74.44;96086.03;4978630;28;20045;-63
2021/05/17 08:22:18;;;;;;;9.50;3.65;;;;;;;10.63;73.09;96088.25;4975640;28;20509;-63
2021/05/17 08:24:43;;;;;;;1.55;0.82;;;;;;;10.81;71.35;96079.38;4981363;28;20050;-62
2021/05/17 08:27:09;;;;;;;1.10;0.40;;;;;;;10.85;70.04;96091.13;4969725;28;20046;-62
2021/05/17 08:29:36;;;;;;;1.17;0.50;;;;;;;11.34;68.52;96086.25;4984784;28;20061;-62
2021/05/17 08:32:06;;;;;;;3.67;0.50;;;;;;;11.60;67.36;96083.19;4984065;28;20042;-65
2021/05/17 08:34:32;;;;;;;1.50;0.60;;;;;;;12.42;64.90;96081.72;4982959;28;20051;-63
2021/05/17 08:36:59;;;;;;;1.25;0.50;;;;;;;12.40;65.12;96062.88;4976210;28;20043;-64
2021/05/17 08:39:25;;;;;;;1.80;0.40;;;;;;;12.61;62.86;96091.53;4977940;28;20050;-64
2021/05/17 08:41:50;;;;;;;1.50;0.50;;;;;;;12.97;61.86;96083.19;4975537;28;20402;-63
2021/05/17 08:44:16;;;;;;;5.57;0.60;;;;;;;13.55;61.40;96079.03;4972741;28;20410;-64
2021/05/17 08:46:46;;;;;;;2.30;0.60;;;;;;;14.21;58.90;96084.94;4984948;28;20458;-64
2021/05/17 08:49:13;;;;;;;1.35;0.47;;;;;;;14.06;59.62;96084.25;4980445;28;20061;-63
2021/05/17 08:51:38;;;;;;;1.27;0.38;;;;;;;13.72;59.83;96082.09;4985648;28;20042;-64
2021/05/17 08:54:06;;;;;;;1.38;0.30;;;;;;;13.61;59.21;96076.66;4976069;28;20053;-63
2021/05/17 08:56:33;;;;;;;1.02;0.50;;;;;;;13.94;59.05;96086.28;4985460;28;20438;-65
2021/05/17 08:59:04;;;;;;;2.00;0.55;;;;;;;13.50;60.02;96084.19;4994994;28;20042;-65
2021/05/17 09:01:30;;;;;;;3.92;0.50;;;;;;;12.95;60.20;96091.84;4995096;28;20145;-63
2021/05/17 09:03:58;;;;;;;2.70;0.55;;;;;;;12.48;62.86;96088.41;4993794;28;20062;-63
2021/05/17 09:06:44;;;;;;;2.40;0.50;;;;;;;12.52;61.97;96100.16;4986630;28;20615;-63
2021/05/17 09:09:36;;;;;;;3.30;0.52;;;;;;;12.46;62.80;96106.44;4983684;28;20042;-64
2021/05/17 09:12:06;;;;;;;1.95;0.35;;;;;;;11.99;63.13;96104.47;4984448;28;20054;-63
2021/05/17 09:14:33;;;;;;;1.95;0.45;;;;;;;11.90;64.21;96104.03;4983589;28;20038;-63
2021/05/17 09:17:00;;;;;;;0.88;0.45;;;;;;;12.26;63.10;96103.31;4971807;28;20582;-63
2021/05/17 09:19:28;;;;;;;1.20;0.30;;;;;;;13.31;60.69;96099.22;4975292;28;20057;-64
2021/05/17 09:22:09;;;;;;;2.38;0.47;;;;;;;13.01;59.61;96095.72;4982243;28;20053;-64
2021/05/17 09:24:46;;;;;;;1.98;0.40;;;;;;;12.87;60.80;96108.75;4981721;28;20371;-62
2021/05/17 09:27:17;;;;;;;1.52;0.40;;;;;;;12.72;60.26;96095.03;4970455;28;20170;-62
2021/05/17 09:29:51;;;;;;;3.80;0.60;;;;;;;12.84;60.83;96113.06;4984967;28;20507;-61
2021/05/17 09:32:20;;;;;;;2.75;0.57;;;;;;;13.33;59.87;96096.84;4975412;28;20046;-62
2021/05/17 09:34:47;;;;;;;1.40;0.83;;;;;;;13.81;57.99;96115.50;4973817;28;20097;-64
2021/05/17 09:37:13;;;;;;;1.90;0.52;;;;;;;14.18;57.39;96113.28;4972231;28;20495;-63
2021/05/17 09:39:47;;;;;;;3.35;0.50;;;;;;;14.11;57.24;96116.84;4974242;28;20081;-63
2021/05/17 09:42:13;;;;;;;2.58;0.38;;;;;;;14.22;55.90;96112.06;4976552;28;20495;-64
2021/05/17 09:44:41;;;;;;;2.25;0.60;;;;;;;14.36;55.97;96108.41;4982938;28;20053;-62
2021/05/17 09:47:09;;;;;;;3.63;0.55;;;;;;;14.70;55.27;96114.06;4971110;28;20074;-62
2021/05/17 09:49:50;;;;;;;1.58;0.50;;;;;;;14.41;54.71;96102.47;4964767;28;20582;-62
2021/05/17 09:52:24;;;;;;;2.83;0.80;;;;;;;14.31;55.88;96109.66;4971703;28;20050;-64
2021/05/17 09:55:10;;;;;;;3.08;0.73;;;;;;;14.10;56.02;96107.06;4972885;28;20038;-60
2021/05/17 09:57:44;;;;;;;1.20;0.50;;;;;;;14.37;55.38;96107.25;4972817;28;20050;-63
2021/05/17 10:00:22;;;;;;;1.42;0.65;;;;;;;13.93;56.33;96103.22;4977535;28;20046;-63
2021/05/17 10:02:50;;;;;;;1.95;0.40;;;;;;;14.43;55.44;96100.09;4982449;28;20511;-64
2021/05/17 10:05:28;;;;;;;1.48;0.50;;;;;;;14.45;55.76;96096.94;4977927;28;20042;-64
2021/05/17 10:07:54;;;;;;;3.25;0.52;;;;;;;14.28;53.70;96093.16;4977311;28;20046;-64
2021/05/17 10:10:23;;;;;;;3.70;0.70;;;;;;;13.96;55.35;96086.66;4966078;28;20043;-64
2021/05/17 10:12:48;;;;;;;4.05;0.60;;;;;;;14.06;54.70;96087.00;4973325;28;20051;-63
2021/05/17 10:15:15;;;;;;;3.40;0.73;;;;;;;14.03;55.55;96090.56;4975603;28;20058;-64
2021/05/17 10:17:41;;;;;;;10.75;2.25;;;;;;;13.27;57.62;96085.47;4975114;28;20053;-64
2021/05/17 10:20:10;;;;;;;2.80;0.98;;;;;;;12.84;58.03;96079.28;4978098;28;20042;-63
2021/05/17 10:22:36;;;;;;;4.47;0.82;;;;;;;12.67;59.74;96086.41;4982522;28;20042;-63
2021/05/17 10:25:05;;;;;;;2.55;0.55;;;;;;;12.54;57.91;96081.31;4977573;28;20605;-63
2021/05/17 10:27:32;;;;;;;1.57;0.70;;;;;;;13.03;57.68;96072.56;4977396;28;20134;-63
2021/05/17 10:30:01;;;;;;;1.33;0.63;;;;;;;13.33;57.11;96077.59;4980151;28;20110;-63
2021/05/17 10:33:00;;;;;;;4.67;0.83;;;;;;;13.71;55.88;96073.06;4975799;28;20038;-63
2021/05/17 10:35:30;;;;;;;0.73;0.30;;;;;;;13.54;55.64;96072.00;4950993;28;20093;-63
2021/05/17 10:38:23;;;;;;;2.47;0.30;;;;;;;13.49;55.99;96066.13;4981513;28;20050;-64
2021/05/17 10:40:53;;;;;;;2.05;0.40;;;;;;;13.39;56.98;96073.25;4977805;28;20406;-62
2021/05/17 10:43:51;;;;;;;3.97;0.40;;;;;;;13.25;56.62;96070.53;4972389;28;20637;-62
2021/05/17 10:46:40;;;;;;;2.65;0.40;;;;;;;12.81;57.95;96058.91;4969419;28;20043;-62
2021/05/17 10:49:17;;;;;;;0.40;0.40;;;;;;;12.90;57.77;96062.00;4958353;28;20066;-62
2021/05/17 10:51:43;;;;;;;1.08;0.45;;;;;;;12.88;58.63;96061.63;4962307;28;20142;-62
2021/05/17 10:54:30;;;;;;;1.30;0.45;;;;;;;12.60;58.51;96059.72;4971413;28;20057;-61
2021/05/17 10:57:02;;;;;;;1.65;0.40;;;;;;;12.37;59.83;96054.66;4979028;28;20450;-60
2021/05/17 11:02:27;;;;;;;3.17;0.63;;;;;;;11.48;66.85;96089.03;4966000;28;20047;-63
2021/05/17 11:04:54;;;;;;;4.70;0.85;;;;;;;10.51;74.16;96127.72;4967413;28;20046;-61
2021/05/17 11:07:26;;;;;;;0.82;0.50;;;;;;;9.89;80.25;96125.56;4969600;28;20077;-60
2021/05/17 11:09:59;;;;;;;2.90;0.73;;;;;;;9.60;83.47;96126.44;4970932;28;20042;-61
2021/05/17 11:12:24;;;;;;;2.95;0.70;;;;;;;9.55;85.82;96133.81;4969227;28;20046;-63
2021/05/17 11:15:05;;;;;;;1.65;0.68;;;;;;;9.63;85.24;96129.19;4973164;28;20053;-63
2021/05/17 11:17:30;;;;;;;2.63;0.50;;;;;;;9.94;85.74;96121.72;4975708;28;20483;-62
2021/05/17 11:19:56;;;;;;;1.42;0.47;;;;;;;10.52;85.51;96128.50;4978093;28;20053;-65
2021/05/17 11:22:52;;;;;;;2.58;0.65;;;;;;;11.34;85.23;96128.16;4977302;28;20135;-62
2021/05/17 11:25:17;;;;;;;1.40;0.80;;;;;;;12.00;84.13;96125.25;4971769;28;20069;-63
2021/05/17 11:27:47;;;;;;;2.90;0.80;;;;;;;12.31;79.11;96120.16;4974328;28;20515;-65
2021/05/17 11:30:38;;;;;;;2.55;0.90;;;;;;;12.72;79.41;96113.47;4971652;28;20074;-64
2021/05/17 11:33:19;;;;;;;2.80;0.90;;;;;;;12.80;76.84;96118.56;4968536;28;20081;-62
2021/05/17 11:35:57;;;;;;;2.00;0.70;;;;;;;12.84;77.34;96112.28;4974539;28;20045;-62
2021/05/17 11:38:23;;;;;;;3.22;0.50;;;;;;;12.71;75.66;96114.66;4979520;28;20332;-63
2021/05/17 11:40:50;;;;;;;2.47;0.57;;;;;;;12.97;72.70;96114.22;4997176;28;20046;-64
2021/05/17 11:43:16;;;;;;;1.88;0.60;;;;;;;12.80;72.63;96121.31;4992668;28;20080;-64
2021/05/17 11:45:41;;;;;;;2.47;1.08;;;;;;;13.19;71.36;96114.16;4982479;28;20046;-64
2021/05/17 11:48:07;;;;;;;1.33;0.75;;;;;;;13.60;67.99;96104.59;4965345;28;20369;-62
2021/05/17 11:50:32;;;;;;;1.38;0.55;;;;;;;13.85;67.97;96109.97;4965939;28;20105;-63
2021/05/17 11:52:58;;;;;;;0.82;0.47;;;;;;;14.26;66.76;96106.53;4979006;28;20050;-64
2021/05/17 11:55:24;;;;;;;1.63;0.57;;;;;;;14.26;66.29;96107.31;4976055;28;20081;-64
2021/05/17 11:57:49;;;;;;;1.67;0.50;;;;;;;14.18;66.17;96094.78;4981372;28;20395;-63
2021/05/17 12:00:17;;;;;;;0.30;0.30;;;;;;;13.87;63.56;96104.84;4977477;28;20050;-64
2021/05/17 12:02:55;;;;;;;2.72;0.50;;;;;;;15.00;62.67;96092.47;4979691;28;20038;-61
2021/05/17 12:05:22;;;;;;;2.05;0.50;;;;;;;15.13;58.45;96087.25;4961227;28;20049;-63
2021/05/17 12:07:51;;;;;;;1.38;0.52;;;;;;;14.98;60.43;96092.13;4965827;28;20066;-63